Time;durP1;ratioP1;P1;durP2;ratioP2;P2;SDS_P1;SDS_P2;PMS_P1;PMS_P2;Temp;Humidity;BMP_temperature;BMP_pressure;BME280_temperature;BME280_humidity;BME280_pressure;Samples;Min_cycle;Max_cycle;Signal;HPM_P1;HPM_P2
2022/04/16 00:00:07;;;;;;;7.10;1.77;;;8.30;99.90;;;;;;5067572;28;20227;-42
2022/04/16 00:02:34;;;;;;;5.63;1.70;;;8.30;99.90;;;;;;5066046;28;20251;-39
2022/04/16 00:05:02;;;;;;;4.13;1.80;;;8.30;99.90;;;;;;5066096;28;20238;-46
2022/04/16 00:07:29;;;;;;;3.63;1.63;;;8.40;99.90;;;;;;5065832;28;20239;-39
2022/04/16 00:09:56;;;;;;;6.23;1.90;;;8.30;99.90;;;;;;5066383;28;20676;-39
2022/04/16 00:12:24;;;;;;;4.67;1.80;;;8.30;99.90;;;;;;5064864;28;20204;-38
2022/04/16 00:14:51;;;;;;;5.10;1.83;;;8.30;99.90;;;;;;5082613;28;20748;-39
2022/04/16 00:17:19;;;;;;;5.43;1.40;;;8.30;99.90;;;;;;5061850;28;20236;-38
2022/04/16 00:19:46;;;;;;;7.70;1.17;;;8.30;99.90;;;;;;5062316;28;20211;-38
2022/04/16 00:22:13;;;;;;;2.73;1.37;;;8.30;99.90;;;;;;5062778;28;20198;-38
2022/04/16 00:24:41;;;;;;;3.70;1.50;;;8.30;99.90;;;;;;5063896;28;20209;-39
2022/04/16 00:27:09;;;;;;;2.97;1.17;;;8.30;99.90;;;;;;5061554;28;20677;-40
2022/04/16 00:29:36;;;;;;;3.37;1.70;;;8.30;99.90;;;;;;5082509;28;20569;-38
2022/04/16 00:32:05;;;;;;;4.57;1.40;;;8.30;99.90;;;;;;5057241;28;20754;-39
2022/04/16 00:34:33;;;;;;;6.13;1.67;;;8.30;99.90;;;;;;5060460;28;20197;-39
2022/04/16 00:37:01;;;;;;;4.23;1.50;;;8.30;99.90;;;;;;5068425;28;20251;-38
2022/04/16 00:39:29;;;;;;;3.67;1.53;;;8.30;99.90;;;;;;5063077;28;20216;-39
2022/04/16 00:41:56;;;;;;;3.33;1.43;;;8.30;99.90;;;;;;5057971;28;20194;-40
2022/04/16 00:44:23;;;;;;;8.17;1.93;;;8.30;99.90;;;;;;5062249;28;20677;-39
2022/04/16 00:46:51;;;;;;;9.60;1.70;;;8.20;99.90;;;;;;5068203;28;20225;-42
2022/04/16 00:49:18;;;;;;;8.23;1.93;;;8.20;99.90;;;;;;5067662;28;20202;-39
2022/04/16 00:51:47;;;;;;;3.60;1.87;;;8.20;99.90;;;;;;5067315;28;20201;-41
2022/04/16 00:54:14;;;;;;;8.07;2.10;;;8.20;99.90;;;;;;5068866;28;20740;-40
2022/04/16 00:56:42;;;;;;;6.83;2.10;;;8.20;99.90;;;;;;5068060;28;20276;-42
2022/04/16 00:59:09;;;;;;;9.27;2.60;;;8.10;99.90;;;;;;5071642;28;20197;-39
2022/04/16 01:01:36;;;;;;;8.23;2.57;;;8.10;99.90;;;;;;5069169;28;20201;-40
2022/04/16 01:04:04;;;;;;;11.07;2.80;;;8.10;99.90;;;;;;5068837;28;20279;-39
2022/04/16 01:06:38;;;;;;;7.87;2.40;;;8.10;99.90;;;;;;5067600;28;20672;-40
2022/04/16 01:09:07;;;;;;;12.60;2.60;;;8.10;99.90;;;;;;5068376;28;20571;-39
2022/04/16 01:11:34;;;;;;;15.23;3.27;;;8.10;99.90;;;;;;5068420;28;20185;-43
2022/04/16 01:14:02;;;;;;;8.60;2.53;;;8.10;99.90;;;;;;5065097;28;20239;-40
2022/04/16 01:16:31;;;;;;;11.60;2.90;;;8.00;99.90;;;;;;5069849;28;20320;-41
2022/04/16 01:18:59;;;;;;;5.97;2.50;;;8.00;99.90;;;;;;5064125;28;20205;-45
2022/04/16 01:21:26;;;;;;;9.43;2.37;;;8.00;99.90;;;;;;5066861;28;20213;-47
2022/04/16 01:23:54;;;;;;;5.47;2.10;;;8.00;99.90;;;;;;5064519;28;20256;-40
2022/04/16 01:26:22;;;;;;;6.60;1.80;;;8.00;99.90;;;;;;5067008;28;20276;-46
2022/04/16 01:28:49;;;;;;;8.53;2.10;;;8.00;99.90;;;;;;5068621;28;20576;-41
2022/04/16 01:31:16;;;;;;;10.37;2.13;;;8.00;99.90;;;;;;5065033;28;20213;-42
2022/04/16 01:33:43;;;;;;;7.63;2.37;;;7.90;99.90;;;;;;5060097;28;20221;-42
2022/04/16 01:36:12;;;;;;;6.53;2.07;;;7.90;99.90;;;;;;5065170;28;20197;-43
2022/04/16 01:38:39;;;;;;;5.77;1.90;;;7.90;99.90;;;;;;5065780;28;20530;-40
2022/04/16 01:41:07;;;;;;;3.20;1.40;;;7.90;99.90;;;;;;5067216;28;20217;-45
2022/04/16 01:43:35;;;;;;;4.37;1.63;;;7.90;99.90;;;;;;5071651;28;20193;-41
2022/04/16 01:46:04;;;;;;;7.03;1.80;;;7.90;99.90;;;;;;5072048;28;20205;-39
2022/04/16 01:48:31;;;;;;;8.40;2.43;;;7.90;99.90;;;;;;5069699;28;20246;-41
2022/04/16 01:50:58;;;;;;;7.47;2.20;;;7.90;99.90;;;;;;5071148;28;20201;-39
2022/04/16 01:53:25;;;;;;;9.80;2.60;;;7.90;99.90;;;;;;5069863;28;20201;-38
2022/04/16 01:55:52;;;;;;;8.03;2.67;;;7.90;99.90;;;;;;5071154;28;20198;-38
2022/04/16 01:58:21;;;;;;;6.57;2.30;;;7.90;99.90;;;;;;5069595;28;20228;-41
2022/04/16 02:00:49;;;;;;;8.00;1.87;;;7.90;99.90;;;;;;5069425;28;20568;-39
2022/04/16 02:03:16;;;;;;;3.20;1.93;;;7.90;99.90;;;;;;5066965;28;20197;-38
2022/04/16 02:05:43;;;;;;;9.30;1.83;;;7.90;99.90;;;;;;5068361;28;20683;-39
2022/04/16 02:08:11;;;;;;;8.57;1.93;;;7.90;99.90;;;;;;5070041;28;20203;-39
2022/04/16 02:10:38;;;;;;;8.17;2.17;;;7.90;99.90;;;;;;5066240;28;20684;-42
2022/04/16 02:13:05;;;;;;;6.70;1.67;;;7.80;99.90;;;;;;5066159;28;20275;-40
2022/04/16 02:15:33;;;;;;;2.50;1.53;;;7.90;99.90;;;;;;5067357;28;20201;-40
2022/04/16 02:18:01;;;;;;;6.10;2.03;;;7.80;99.90;;;;;;5083209;28;20597;-42
2022/04/16 02:20:28;;;;;;;5.07;1.60;;;7.90;99.90;;;;;;5060129;28;20241;-40
2022/04/16 02:22:55;;;;;;;13.90;1.83;;;7.80;99.90;;;;;;5068048;28;20201;-42
2022/04/16 02:25:23;;;;;;;5.73;1.80;;;7.80;99.90;;;;;;5064734;28;20211;-40
2022/04/16 02:27:51;;;;;;;4.60;1.70;;;7.80;99.90;;;;;;5069046;28;20197;-39
2022/04/16 02:30:19;;;;;;;7.43;1.97;;;7.80;99.90;;;;;;5062727;28;20244;-39
2022/04/16 02:32:52;;;;;;;5.83;1.93;;;7.80;99.90;;;;;;5061022;28;20442;-39
2022/04/16 02:35:19;;;;;;;4.03;1.70;;;7.80;99.90;;;;;;5060373;28;20193;-40
2022/04/16 02:37:47;;;;;;;10.07;1.90;;;7.80;99.90;;;;;;5061347;28;20231;-39
2022/04/16 02:40:14;;;;;;;6.00;1.50;;;7.80;99.90;;;;;;5067041;28;20722;-39
2022/04/16 02:42:44;;;;;;;6.33;1.77;;;7.80;99.90;;;;;;5056703;28;20281;-39
2022/04/16 02:47:59;;;;;;;9.00;1.70;;;7.80;99.90;;;;;;5067185;28;20205;-41
2022/04/16 02:50:28;;;;;;;3.60;1.20;;;7.80;99.90;;;;;;5068811;28;20283;-39
2022/04/16 02:52:55;;;;;;;5.20;1.40;;;7.80;99.90;;;;;;5068625;28;20683;-39
2022/04/16 02:55:23;;;;;;;4.27;1.80;;;7.80;99.90;;;;;;5069617;28;20211;-39
2022/04/16 02:57:50;;;;;;;2.33;1.23;;;7.80;99.90;;;;;;5065187;28;20208;-38
2022/04/16 03:00:19;;;;;;;6.03;1.90;;;7.80;99.90;;;;;;5069420;28;20223;-38
2022/04/16 03:02:47;;;;;;;4.83;1.40;;;7.80;99.90;;;;;;5066751;28;20587;-39
2022/04/16 03:05:16;;;;;;;3.80;1.10;;;7.80;99.90;;;;;;5069462;28;20197;-40
2022/04/16 03:07:43;;;;;;;4.30;1.40;;;7.80;99.90;;;;;;5067250;28;20578;-39
2022/04/16 03:10:11;;;;;;;4.73;1.60;;;7.80;99.90;;;;;;5067878;28;20199;-40
2022/04/16 03:12:45;;;;;;;4.97;1.00;;;7.70;99.90;;;;;;5063536;28;20202;-39
2022/04/16 03:17:58;;;;;;;3.53;1.10;;;7.70;99.90;;;;;;5064583;28;20269;-39
2022/04/16 03:20:29;;;;;;;8.90;1.70;;;7.70;99.90;;;;;;5057168;28;20206;-39
2022/04/16 03:22:56;;;;;;;7.43;2.10;;;7.70;99.90;;;;;;5064746;28;20629;-39
2022/04/16 03:25:24;;;;;;;4.80;1.83;;;7.70;99.90;;;;;;5064079;28;20212;-40
2022/04/16 03:27:51;;;;;;;4.23;1.37;;;7.70;99.90;;;;;;5065874;28;20229;-43
2022/04/16 03:30:18;;;;;;;3.60;1.60;;;7.70;99.90;;;;;;5063232;28;20541;-43
2022/04/16 03:32:48;;;;;;;4.73;1.40;;;7.60;99.90;;;;;;5057951;28;20255;-41
2022/04/16 03:35:15;;;;;;;4.83;1.40;;;7.60;99.90;;;;;;5065376;28;20197;-42
2022/04/16 03:37:44;;;;;;;10.07;1.50;;;7.60;99.90;;;;;;5059346;28;20203;-40
2022/04/16 03:40:12;;;;;;;3.90;1.50;;;7.70;99.90;;;;;;5060669;28;20200;-45
2022/04/16 03:42:46;;;;;;;7.40;1.50;;;7.60;99.90;;;;;;5065499;28;20200;-40
2022/04/16 03:45:18;;;;;;;5.37;1.60;;;7.60;99.90;;;;;;5070853;28;20192;-39
2022/04/16 03:47:46;;;;;;;2.37;1.30;;;7.70;99.90;;;;;;5069072;28;20219;-41
2022/04/16 03:50:13;;;;;;;5.77;1.50;;;7.70;99.90;;;;;;5068243;28;20336;-39
2022/04/16 03:52:43;;;;;;;9.23;2.03;;;7.70;99.90;;;;;;5069150;28;20553;-39
2022/04/16 04:00:43;;;;;;;5.27;1.73;;;7.70;99.90;;;;;;5068105;28;20209;-39
2022/04/16 04:03:10;;;;;;;4.57;1.93;;;7.70;99.90;;;;;;5064154;28;20201;-39
2022/04/16 04:05:38;;;;;;;6.13;1.70;;;7.80;99.90;;;;;;5067750;28;20653;-38
2022/04/16 04:08:07;;;;;;;6.47;1.70;;;7.70;99.90;;;;;;5057424;28;20204;-38
2022/04/16 04:10:35;;;;;;;6.57;1.80;;;7.80;99.90;;;;;;5066976;28;20542;-39
2022/04/16 04:13:02;;;;;;;6.77;1.63;;;7.70;99.90;;;;;;5063148;28;20204;-41
2022/04/16 04:15:30;;;;;;;3.33;1.40;;;7.70;99.90;;;;;;5068479;28;20213;-42
2022/04/16 04:17:58;;;;;;;3.93;1.70;;;7.70;99.90;;;;;;5063087;28;20236;-39
2022/04/16 04:20:26;;;;;;;6.83;1.67;;;7.70;99.90;;;;;;5061567;28;20659;-41
2022/04/16 04:22:53;;;;;;;6.50;1.47;;;7.80;99.90;;;;;;5060424;28;20568;-46
2022/04/16 04:25:22;;;;;;;2.50;1.23;;;7.80;99.90;;;;;;5062481;28;20204;-45
2022/04/16 04:27:49;;;;;;;4.00;1.43;;;7.80;99.90;;;;;;5066070;28;20189;-48
2022/04/16 04:30:16;;;;;;;4.60;1.50;;;7.80;99.90;;;;;;5061864;28;20555;-47
2022/04/16 04:32:44;;;;;;;4.30;1.30;;;7.80;99.90;;;;;;5091693;28;20718;-43
2022/04/16 04:35:11;;;;;;;3.23;1.30;;;7.80;99.90;;;;;;5063381;28;20529;-39
2022/04/16 04:37:39;;;;;;;6.83;1.63;;;7.80;99.90;;;;;;5061985;28;20190;-45
2022/04/16 04:40:07;;;;;;;2.73;1.10;;;7.80;99.90;;;;;;5063513;28;20738;-41
2022/04/16 04:42:37;;;;;;;5.50;1.60;;;7.80;99.90;;;;;;5068734;28;20224;-40
2022/04/16 04:45:08;;;;;;;3.40;1.10;;;7.90;99.90;;;;;;5073478;28;20706;-44
2022/04/16 04:47:36;;;;;;;2.67;1.00;;;7.90;99.90;;;;;;5072570;28;20199;-42
2022/04/16 04:50:03;;;;;;;2.07;1.17;;;7.90;99.90;;;;;;5070076;28;20201;-46
2022/04/16 04:52:30;;;;;;;1.83;1.00;;;8.00;99.90;;;;;;5072449;28;20208;-44
2022/04/16 04:54:58;;;;;;;4.73;1.40;;;7.90;99.90;;;;;;5069842;28;20201;-40
2022/04/16 04:57:26;;;;;;;2.30;1.20;;;7.90;99.90;;;;;;5073172;28;20207;-40
2022/04/16 04:59:55;;;;;;;1.13;1.03;;;7.90;99.90;;;;;;5068603;28;20201;-42
2022/04/16 05:02:22;;;;;;;7.37;1.67;;;8.00;99.90;;;;;;5068919;28;20200;-47
2022/04/16 05:04:49;;;;;;;2.83;1.23;;;8.00;99.90;;;;;;5055831;28;20197;-44
2022/04/16 05:07:16;;;;;;;4.60;1.60;;;8.00;99.90;;;;;;5067805;28;20204;-44
2022/04/16 05:09:43;;;;;;;5.50;1.30;;;8.00;99.90;;;;;;5065051;28;20193;-43
2022/04/16 05:12:10;;;;;;;1.40;1.20;;;8.00;99.90;;;;;;5066601;28;20316;-45
2022/04/16 05:14:37;;;;;;;2.07;1.57;;;8.00;99.90;;;;;;5063908;28;20294;-42
2022/04/16 05:17:06;;;;;;;7.63;1.40;;;8.10;99.90;;;;;;5069062;28;20233;-41
2022/04/16 05:19:33;;;;;;;2.57;1.47;;;8.10;99.90;;;;;;5060534;28;20186;-42
2022/04/16 05:22:00;;;;;;;2.93;1.60;;;8.10;99.90;;;;;;5062181;28;20224;-40
2022/04/16 05:24:27;;;;;;;6.60;1.33;;;8.10;99.90;;;;;;5060962;28;20247;-39
2022/04/16 05:26:54;;;;;;;2.50;1.53;;;8.20;99.90;;;;;;5071403;28;20197;-44
2022/04/16 05:29:22;;;;;;;6.43;2.40;;;8.20;99.90;;;;;;5064749;28;20194;-40
2022/04/16 05:31:50;;;;;;;5.13;1.93;;;8.30;99.90;;;;;;5061066;28;20277;-39
2022/04/16 05:34:22;;;;;;;3.03;1.57;;;8.40;99.90;;;;;;5060939;28;20683;-41
2022/04/16 05:36:50;;;;;;;4.97;1.50;;;8.40;99.90;;;;;;5059930;28;20535;-40
2022/04/16 05:39:17;;;;;;;2.40;1.47;;;8.40;99.90;;;;;;5059253;28;20201;-45
2022/04/16 05:41:45;;;;;;;4.90;1.37;;;8.50;99.90;;;;;;5061617;28;20198;-44
2022/04/16 05:44:12;;;;;;;3.13;1.30;;;8.50;99.90;;;;;;5071504;28;20672;-47
2022/04/16 05:46:39;;;;;;;6.40;1.70;;;8.60;99.90;;;;;;5071262;28;20199;-46
2022/04/16 05:49:06;;;;;;;7.53;1.93;;;8.60;99.90;;;;;;5070619;28;20287;-40
2022/04/16 05:51:36;;;;;;;5.33;2.90;;;8.70;99.90;;;;;;5069449;28;20201;-42
2022/04/16 05:54:04;;;;;;;5.53;2.90;;;8.70;99.90;;;;;;5071316;28;20206;-45
2022/04/16 05:56:31;;;;;;;4.70;2.00;;;8.70;99.90;;;;;;5068711;28;20200;-48
2022/04/16 05:59:01;;;;;;;7.13;2.10;;;8.80;99.90;;;;;;5070309;28;20267;-46
2022/04/16 06:01:28;;;;;;;3.97;1.70;;;8.80;99.90;;;;;;5066546;28;20205;-40
2022/04/16 06:03:55;;;;;;;3.83;1.70;;;8.80;99.90;;;;;;5068407;28;20662;-40
2022/04/16 06:06:22;;;;;;;6.63;2.67;;;8.80;99.90;;;;;;5070206;28;20216;-39
2022/04/16 06:08:51;;;;;;;3.57;1.93;;;8.90;99.90;;;;;;5072511;28;20193;-40
2022/04/16 06:11:20;;;;;;;11.67;2.40;;;8.90;99.90;;;;;;5064361;28;20657;-39
2022/04/16 06:13:47;;;;;;;5.77;1.70;;;8.90;99.90;;;;;;5067773;28;20248;-40
2022/04/16 06:16:14;;;;;;;4.47;1.80;;;9.00;99.90;;;;;;5065791;28;20769;-43
2022/04/16 06:18:41;;;;;;;6.23;1.67;;;9.10;99.90;;;;;;5064958;28;20212;-40
2022/04/16 06:21:08;;;;;;;7.87;1.93;;;9.10;99.90;;;;;;5062073;28;20204;-40
2022/04/16 06:23:35;;;;;;;7.63;1.40;;;9.20;99.90;;;;;;5066308;28;20194;-40
2022/04/16 06:26:03;;;;;;;3.43;1.10;;;9.20;99.90;;;;;;5062096;28;20205;-39
2022/04/16 06:28:31;;;;;;;3.43;1.37;;;9.20;99.90;;;;;;5070231;28;20203;-39
2022/04/16 06:30:58;;;;;;;3.23;1.20;;;9.20;99.90;;;;;;5059647;28;20195;-39
2022/04/16 06:33:25;;;;;;;5.67;1.20;;;9.20;99.90;;;;;;5062449;28;20193;-42
2022/04/16 06:35:52;;;;;;;3.47;0.90;;;9.30;99.90;;;;;;5058770;28;20209;-39
2022/04/16 06:38:19;;;;;;;3.60;1.17;;;9.30;99.90;;;;;;5068865;28;20259;-40
2022/04/16 06:40:46;;;;;;;4.97;1.30;;;9.40;99.90;;;;;;5058135;28;20207;-40
2022/04/16 06:43:14;;;;;;;9.37;1.20;;;9.40;99.90;;;;;;5058137;28;20950;-41
2022/04/16 06:45:42;;;;;;;3.70;1.23;;;9.50;99.90;;;;;;5070914;28;20199;-40
2022/04/16 06:48:09;;;;;;;7.60;1.80;;;9.50;99.90;;;;;;5068982;28;20258;-46
2022/04/16 06:50:36;;;;;;;3.40;1.23;;;9.60;99.90;;;;;;5069992;28;20305;-46
2022/04/16 06:53:03;;;;;;;3.53;1.10;;;9.60;99.90;;;;;;5070067;28;20257;-46
2022/04/16 06:55:30;;;;;;;2.67;1.10;;;9.60;99.90;;;;;;5069324;28;20195;-43
2022/04/16 06:57:57;;;;;;;3.17;1.20;;;9.60;99.90;;;;;;5066532;28;20722;-42
2022/04/16 07:00:26;;;;;;;2.27;0.90;;;9.60;99.90;;;;;;5067142;28;20221;-39
2022/04/16 07:02:53;;;;;;;3.77;1.10;;;9.70;99.90;;;;;;5063165;28;20214;-42
2022/04/16 07:05:20;;;;;;;3.50;1.20;;;9.70;99.90;;;;;;5067751;28;20204;-42
2022/04/16 07:07:47;;;;;;;2.73;0.90;;;9.70;99.90;;;;;;5069395;28;20565;-39
2022/04/16 07:10:14;;;;;;;4.03;1.00;;;9.70;99.90;;;;;;5067530;28;20204;-41
2022/04/16 07:12:41;;;;;;;3.83;1.20;;;9.60;99.90;;;;;;5062959;28;20743;-38
2022/04/16 07:15:09;;;;;;;3.63;1.17;;;9.60;99.90;;;;;;5066915;28;20273;-40
2022/04/16 07:17:38;;;;;;;1.87;0.77;;;9.60;99.90;;;;;;5063664;28;20263;-40
2022/04/16 07:20:06;;;;;;;3.93;1.20;;;9.50;99.90;;;;;;5064372;28;20204;-40
2022/04/16 07:22:34;;;;;;;2.63;1.30;;;9.50;99.90;;;;;;5059688;28;20299;-40
2022/04/16 07:25:01;;;;;;;3.30;1.00;;;9.50;99.90;;;;;;5065307;28;20197;-40
2022/04/16 07:27:29;;;;;;;0.87;0.80;;;9.50;99.90;;;;;;5064822;28;20227;-41
2022/04/16 07:29:58;;;;;;;5.90;1.23;;;9.60;99.90;;;;;;5064469;28;20226;-41
2022/04/16 07:32:26;;;;;;;3.03;0.90;;;9.60;99.90;;;;;;5056411;28;20207;-42
2022/04/16 07:34:54;;;;;;;3.77;1.20;;;9.60;99.90;;;;;;5055538;28;20244;-39
2022/04/16 07:37:22;;;;;;;1.83;1.03;;;9.60;99.90;;;;;;5058208;28;20559;-45
2022/04/16 07:39:50;;;;;;;2.47;1.17;;;9.60;99.90;;;;;;5056668;28;20218;-44
2022/04/16 07:42:17;;;;;;;2.97;1.10;;;9.50;99.90;;;;;;5064238;28;20272;-43
2022/04/16 07:44:44;;;;;;;1.60;1.00;;;9.50;99.90;;;;;;5069741;28;20559;-44
2022/04/16 07:47:11;;;;;;;2.60;0.80;;;9.50;99.90;;;;;;5069769;28;20224;-45
2022/04/16 07:49:38;;;;;;;3.87;0.87;;;9.50;99.90;;;;;;5065840;28;20271;-43
2022/04/16 07:52:08;;;;;;;1.87;1.07;;;9.50;99.90;;;;;;5069664;28;20205;-42
2022/04/16 07:54:37;;;;;;;1.47;0.80;;;9.60;99.90;;;;;;5067339;28;20227;-47
2022/04/16 07:57:04;;;;;;;3.73;1.00;;;9.70;99.90;;;;;;5068577;28;20192;-43
2022/04/16 07:59:32;;;;;;;3.97;0.80;;;9.70;99.70;;;;;;5065950;28;20271;-49
2022/04/16 08:01:59;;;;;;;2.53;0.90;;;9.80;99.80;;;;;;5067611;28;20210;-42
2022/04/16 08:04:26;;;;;;;1.70;0.87;;;9.80;99.90;;;;;;5062703;28;20281;-43
2022/04/16 08:06:53;;;;;;;6.43;1.00;;;9.90;99.90;;;;;;5066967;28;20274;-46
2022/04/16 08:09:22;;;;;;;4.90;1.57;;;10.10;99.40;;;;;;5071255;28;20287;-45
2022/04/16 08:11:49;;;;;;;3.63;1.30;;;10.20;98.90;;;;;;5070548;28;20189;-42
2022/04/16 08:14:16;;;;;;;3.43;1.40;;;10.20;98.70;;;;;;5073079;28;20199;-39
2022/04/16 08:16:43;;;;;;;3.33;1.20;;;10.30;98.50;;;;;;5063130;28;20240;-44
2022/04/16 08:19:10;;;;;;;1.93;0.73;;;10.30;98.10;;;;;;5062111;28;20274;-40
2022/04/16 08:21:38;;;;;;;2.20;0.87;;;10.40;98.10;;;;;;5067117;28;20584;-43
2022/04/16 08:24:13;;;;;;;1.13;0.90;;;10.50;98.10;;;;;;5062745;28;20204;-43
2022/04/16 08:26:42;;;;;;;4.03;0.90;;;10.50;98.10;;;;;;5066909;28;20192;-40
2022/04/16 08:29:09;;;;;;;1.47;0.97;;;10.60;98.10;;;;;;5060658;28;20592;-40
2022/04/16 08:31:36;;;;;;;3.47;1.10;;;10.70;98.00;;;;;;5065284;28;20267;-40
2022/04/16 08:34:04;;;;;;;2.30;0.83;;;10.80;97.80;;;;;;5085324;28;20199;-42
2022/04/16 08:36:31;;;;;;;2.47;0.87;;;11.00;97.80;;;;;;5064168;28;20208;-46
2022/04/16 08:38:58;;;;;;;4.03;1.20;;;11.10;97.00;;;;;;5059811;28;20205;-40
2022/04/16 08:41:27;;;;;;;2.10;1.17;;;11.10;96.00;;;;;;5062950;28;20682;-43
2022/04/16 08:43:57;;;;;;;3.20;1.30;;;11.10;96.10;;;;;;5061883;28;20677;-43
2022/04/16 08:46:28;;;;;;;2.67;0.90;;;11.10;95.50;;;;;;5072119;28;20191;-41
2022/04/16 08:48:58;;;;;;;3.23;0.93;;;11.10;95.30;;;;;;5071703;28;20268;-44
2022/04/16 08:51:27;;;;;;;3.37;0.87;;;11.20;95.40;;;;;;5070978;28;20272;-47
2022/04/16 08:53:54;;;;;;;1.63;0.60;;;11.30;95.60;;;;;;5072481;28;20188;-47
2022/04/16 08:56:21;;;;;;;3.50;1.23;;;11.40;95.30;;;;;;5071203;28;20682;-48
2022/04/16 08:58:49;;;;;;;3.33;1.03;;;11.50;94.70;;;;;;5071354;28;20195;-42
2022/04/16 09:01:17;;;;;;;5.03;1.00;;;11.60;94.10;;;;;;5066633;28;20233;-42
2022/04/16 09:03:48;;;;;;;3.63;0.90;;;11.50;93.80;;;;;;5069006;28;20291;-47
2022/04/16 09:06:23;;;;;;;2.57;0.80;;;11.50;93.50;;;;;;5065157;28;20659;-43
2022/04/16 09:08:50;;;;;;;3.80;1.10;;;11.40;93.70;;;;;;5072025;28;20251;-43
2022/04/16 09:11:21;;;;;;;3.93;0.87;;;11.40;93.70;;;;;;5065333;28;20252;-43
2022/04/16 09:13:53;;;;;;;5.47;1.00;;;11.40;93.70;;;;;;5067220;28;20533;-47
2022/04/16 09:16:22;;;;;;;3.80;1.03;;;11.40;93.90;;;;;;5067391;28;20324;-41
2022/04/16 09:18:50;;;;;;;3.87;1.10;;;11.40;93.90;;;;;;5063156;28;20195;-45
2022/04/16 09:21:18;;;;;;;3.83;1.10;;;11.40;93.60;;;;;;5064149;28;20625;-44
2022/04/16 09:23:51;;;;;;;4.27;1.20;;;11.40;93.40;;;;;;5062792;28;20295;-44
2022/04/16 09:26:31;;;;;;;6.30;1.00;;;11.30;93.50;;;;;;5064264;28;20682;-42
2022/04/16 09:29:02;;;;;;;1.63;1.03;;;11.40;93.50;;;;;;5061183;28;20204;-44
2022/04/16 09:31:35;;;;;;;2.10;0.80;;;11.40;93.00;;;;;;5070828;28;20292;-46
2022/04/16 09:34:02;;;;;;;2.13;0.70;;;11.40;93.20;;;;;;5059786;28;20726;-46
2022/04/16 09:36:29;;;;;;;2.33;1.50;;;11.40;92.80;;;;;;5057881;28;20201;-47
2022/04/16 09:39:04;;;;;;;1.80;1.00;;;11.40;92.40;;;;;;5085356;28;20260;-41
2022/04/16 09:41:33;;;;;;;3.00;0.87;;;11.40;92.60;;;;;;5066022;28;20223;-45
2022/04/16 09:44:00;;;;;;;2.87;1.07;;;11.50;92.80;;;;;;5062050;28;20620;-39
2022/04/16 09:46:29;;;;;;;4.37;1.10;;;11.70;92.90;;;;;;5071107;28;20202;-41
2022/04/16 09:49:03;;;;;;;1.43;0.80;;;11.80;92.80;;;;;;5070397;28;20288;-38
2022/04/16 09:51:35;;;;;;;1.63;1.00;;;12.00;92.10;;;;;;5069983;28;20679;-48
2022/04/16 09:54:06;;;;;;;3.87;0.90;;;12.10;91.80;;;;;;5071810;28;20590;-40
2022/04/16 09:56:37;;;;;;;2.50;1.87;;;12.20;91.70;;;;;;5069100;28;20231;-40
2022/04/16 09:59:05;;;;;;;1.90;1.80;;;12.20;91.50;;;;;;5070726;28;20710;-45
2022/04/16 10:01:33;;;;;;;2.43;1.60;;;12.20;91.10;;;;;;5067675;28;20199;-43
2022/04/16 10:04:02;;;;;;;1.07;1.00;;;12.20;91.30;;;;;;5068111;28;20211;-41
2022/04/16 10:06:30;;;;;;;3.37;1.10;;;12.30;91.30;;;;;;5066650;28;20255;-41
2022/04/16 10:09:00;;;;;;;4.43;1.30;;;12.30;90.60;;;;;;5067759;28;20561;-40
2022/04/16 10:12:59;;;;;;;2.00;1.10;;;12.20;90.60;;;;;;5066807;28;20204;-45
2022/04/16 10:14:37;;;;;;;5.03;1.30;;;12.10;90.70;;;;;;5064254;28;20205;-43
2022/04/16 10:17:16;;;;;;;1.90;1.20;;;12.10;90.80;;;;;;5068222;28;20286;-44
2022/04/16 10:19:48;;;;;;;2.30;1.20;;;12.00;90.80;;;;;;5064088;28;20779;-40
2022/04/16 10:22:24;;;;;;;1.30;0.90;;;12.00;90.80;;;;;;5070474;28;20208;-39
2022/04/16 10:24:53;;;;;;;3.33;0.97;;;12.00;91.00;;;;;;5057468;28;20250;-39
2022/04/16 10:27:24;;;;;;;1.47;0.83;;;12.10;91.20;;;;;;5066191;28;20198;-39
2022/04/16 10:29:52;;;;;;;1.33;0.77;;;12.20;91.00;;;;;;5058765;28;20243;-41
2022/04/16 10:32:19;;;;;;;0.90;0.77;;;12.30;90.90;;;;;;5058629;28;20225;-39
2022/04/16 10:34:48;;;;;;;6.33;2.20;;;12.40;91.10;;;;;;5063653;28;20197;-39
2022/04/16 10:37:22;;;;;;;3.50;2.20;;;12.60;90.80;;;;;;5058096;28;20201;-41
2022/04/16 10:39:53;;;;;;;1.17;1.07;;;12.60;90.40;;;;;;5057548;28;20188;-39
2022/04/16 10:42:31;;;;;;;2.23;0.90;;;12.60;90.20;;;;;;5057248;28;20189;-40
2022/04/16 10:45:09;;;;;;;1.70;0.90;;;12.60;90.10;;;;;;5068246;28;20634;-42
2022/04/16 10:47:38;;;;;;;1.17;0.80;;;12.60;89.60;;;;;;5069944;28;20219;-40
2022/04/16 10:50:14;;;;;;;1.03;0.70;;;12.70;89.80;;;;;;5068033;28;20199;-41
2022/04/16 10:52:52;;;;;;;2.17;0.93;;;12.70;88.90;;;;;;5069757;28;20549;-42
2022/04/16 10:55:24;;;;;;;3.30;0.73;;;12.70;88.70;;;;;;5059906;28;20193;-38
2022/04/16 10:58:03;;;;;;;1.57;0.80;;;12.60;88.00;;;;;;5063754;28;20261;-45
2022/04/16 11:00:40;;;;;;;2.30;0.70;;;12.70;88.50;;;;;;5069483;28;20199;-40
2022/04/16 11:03:12;;;;;;;3.37;0.80;;;12.70;88.50;;;;;;5068494;28;20289;-39
2022/04/16 11:05:42;;;;;;;2.13;0.80;;;12.70;88.60;;;;;;5066822;28;20265;-40
2022/04/16 11:08:11;;;;;;;1.33;0.70;;;12.80;88.00;;;;;;5066254;28;20197;-48
2022/04/16 11:10:40;;;;;;;1.60;0.97;;;12.80;87.50;;;;;;5067428;28;20227;-44
2022/04/16 11:13:07;;;;;;;1.63;1.00;;;12.90;87.40;;;;;;5067579;28;20267;-42
2022/04/16 11:15:35;;;;;;;1.97;1.40;;;13.00;88.30;;;;;;5065616;28;20269;-42
2022/04/16 11:18:03;;;;;;;3.60;1.10;;;13.10;87.30;;;;;;5065669;28;20243;-40
2022/04/16 11:20:31;;;;;;;1.70;0.97;;;13.20;87.40;;;;;;5063334;28;20196;-43
2022/04/16 11:23:01;;;;;;;3.57;1.00;;;13.30;86.30;;;;;;5063865;28;20220;-41
2022/04/16 11:34:14;;;;;;;2.73;0.70;;;13.40;85.30;;;;;;5063045;28;20224;-40
2022/04/16 11:36:30;;;;;;;2.43;0.93;;;13.50;82.90;;;;;;5063409;28;20253;-40
2022/04/16 11:38:58;;;;;;;1.60;0.70;;;13.50;82.60;;;;;;5064834;28;20669;-42
2022/04/16 11:41:27;;;;;;;0.80;0.80;;;13.50;83.10;;;;;;5067835;28;20194;-42
2022/04/16 11:43:55;;;;;;;2.23;0.80;;;13.60;82.90;;;;;;5058483;28;20300;-41
2022/04/16 11:46:23;;;;;;;2.03;1.00;;;13.70;82.50;;;;;;5069008;28;20201;-47
2022/04/16 11:48:51;;;;;;;1.83;0.87;;;13.70;81.80;;;;;;5068193;28;20263;-40
2022/04/16 11:51:20;;;;;;;1.37;0.93;;;13.70;81.20;;;;;;5066353;28;20309;-40
2022/04/16 11:53:51;;;;;;;0.83;0.67;;;13.70;81.40;;;;;;5068848;28;20198;-47
2022/04/16 11:56:21;;;;;;;1.80;0.83;;;13.70;81.30;;;;;;5067613;28;20198;-40
2022/04/16 11:58:50;;;;;;;3.47;1.17;;;13.80;80.40;;;;;;5069120;28;20292;-39
2022/04/16 12:01:20;;;;;;;1.50;0.70;;;13.80;79.70;;;;;;5065583;28;20593;-42
2022/04/16 12:03:48;;;;;;;1.47;0.83;;;13.90;79.70;;;;;;5066641;28;20212;-45
2022/04/16 12:06:16;;;;;;;2.60;1.00;;;13.90;79.70;;;;;;5064739;28;20290;-42
2022/04/16 12:08:44;;;;;;;1.73;0.80;;;14.00;79.40;;;;;;5067823;28;20620;-40
2022/04/16 12:11:11;;;;;;;1.33;0.87;;;14.00;78.80;;;;;;5057660;28;20266;-40
2022/04/16 12:13:41;;;;;;;1.20;1.00;;;14.00;78.50;;;;;;5066241;28;20222;-48
2022/04/16 12:16:10;;;;;;;2.97;1.30;;;14.00;78.90;;;;;;5064778;28;20205;-39
2022/04/16 12:18:40;;;;;;;4.43;2.10;;;14.10;78.20;;;;;;5064271;28;20197;-42
2022/04/16 12:21:09;;;;;;;1.67;1.00;;;14.10;77.30;;;;;;5059361;28;20206;-44
2022/04/16 12:23:38;;;;;;;2.33;1.30;;;14.00;77.00;;;;;;5064980;28;20225;-43
2022/04/16 12:26:06;;;;;;;1.23;1.13;;;14.00;77.20;;;;;;5058921;28;20696;-46
2022/04/16 12:28:35;;;;;;;3.23;1.20;;;14.00;77.40;;;;;;5069419;28;20194;-43
2022/04/16 12:31:04;;;;;;;2.87;1.23;;;14.10;76.10;;;;;;5063770;28;20221;-45
2022/04/16 12:33:31;;;;;;;2.70;1.07;;;14.00;75.80;;;;;;5061590;28;20221;-45
2022/04/16 12:35:59;;;;;;;2.10;1.70;;;14.10;76.60;;;;;;5057472;28;20278;-42
2022/04/16 12:38:27;;;;;;;2.43;1.60;;;15.10;77.90;;;;;;5062327;28;20199;-46
2022/04/16 12:41:05;;;;;;;5.30;2.53;;;14.20;77.10;;;;;;5056252;28;20226;-44
2022/04/16 12:43:32;;;;;;;3.33;2.00;;;14.30;76.40;;;;;;5056052;28;20242;-46
2022/04/16 12:45:59;;;;;;;4.83;2.63;;;14.30;76.30;;;;;;5069447;28;20200;-46
2022/04/16 12:48:28;;;;;;;9.20;4.07;;;14.40;76.20;;;;;;5066600;28;20206;-42
2022/04/16 12:50:55;;;;;;;11.27;5.47;;;14.30;75.60;;;;;;5058432;28;20215;-44
2022/04/16 12:53:22;;;;;;;12.37;5.93;;;14.30;74.60;;;;;;5063239;28;20188;-46
2022/04/16 12:55:50;;;;;;;8.97;5.10;;;14.20;74.90;;;;;;5070244;28;20192;-42
2022/04/16 12:58:17;;;;;;;6.27;3.43;;;14.10;74.30;;;;;;5066494;28;20205;-43
2022/04/16 13:00:46;;;;;;;6.77;3.20;;;14.00;72.40;;;;;;5069359;28;20203;-39
2022/04/16 13:03:14;;;;;;;3.50;2.27;;;14.00;71.80;;;;;;5063934;28;20284;-45
2022/04/16 13:05:42;;;;;;;9.43;3.30;;;14.00;72.50;;;;;;5068676;28;20198;-41
2022/04/16 13:08:11;;;;;;;5.83;2.70;;;14.00;72.60;;;;;;5063417;28;20647;-44
2022/04/16 13:10:38;;;;;;;2.57;1.87;;;14.00;73.20;;;;;;5067486;28;20261;-43
2022/04/16 13:13:06;;;;;;;4.00;2.03;;;14.10;72.10;;;;;;5062205;28;20195;-45
2022/04/16 13:15:33;;;;;;;4.27;1.77;;;14.20;71.80;;;;;;5066308;28;20207;-43
2022/04/16 13:18:00;;;;;;;2.53;1.67;;;14.20;70.90;;;;;;5064685;28;20290;-40